sensor_id;sensor_type;location;lat;lon;timestamp;P1;durP1;ratioP1;P2;durP2;ratioP2
46845;SDS011;33947;46.804;134.252;2023-03-23T00:00:48;52.28;;;18.00;;
46845;SDS011;33947;46.804;134.252;2023-03-23T00:03:51;63.20;;;21.02;;
46845;SDS011;33947;46.804;134.252;2023-03-23T00:06:57;57.00;;;20.88;;
46845;SDS011;33947;46.804;134.252;2023-03-23T00:10:02;68.90;;;22.33;;
46845;SDS011;33947;46.804;134.252;2023-03-23T00:13:05;129.50;;;44.20;;
46845;SDS011;33947;46.804;134.252;2023-03-23T00:16:08;76.95;;;26.95;;
46845;SDS011;33947;46.804;134.252;2023-03-23T00:19:21;71.18;;;16.00;;
46845;SDS011;33947;46.804;134.252;2023-03-23T00:22:24;67.47;;;16.38;;
46845;SDS011;33947;46.804;134.252;2023-03-23T00:25:26;77.25;;;21.30;;
46845;SDS011;33947;46.804;134.252;2023-03-23T00:28:29;76.70;;;22.52;;
46845;SDS011;33947;46.804;134.252;2023-03-23T00:31:32;75.88;;;18.20;;
46845;SDS011;33947;46.804;134.252;2023-03-23T00:34:37;53.35;;;13.88;;
46845;SDS011;33947;46.804;134.252;2023-03-23T00:37:40;63.75;;;13.98;;
46845;SDS011;33947;46.804;134.252;2023-03-23T00:40:43;70.03;;;15.70;;
46845;SDS011;33947;46.804;134.252;2023-03-23T00:43:46;78.22;;;17.40;;
46845;SDS011;33947;46.804;134.252;2023-03-23T00:46:49;74.43;;;14.63;;
46845;SDS011;33947;46.804;134.252;2023-03-23T00:49:52;91.18;;;16.08;;
46845;SDS011;33947;46.804;134.252;2023-03-23T00:52:58;79.20;;;14.15;;
46845;SDS011;33947;46.804;134.252;2023-03-23T00:56:01;79.93;;;14.38;;
46845;SDS011;33947;46.804;134.252;2023-03-23T00:59:03;68.25;;;14.05;;
46845;SDS011;33947;46.804;134.252;2023-03-23T01:02:06;94.57;;;14.45;;
46845;SDS011;33947;46.804;134.252;2023-03-23T01:05:10;109.03;;;14.27;;
46845;SDS011;33947;46.804;134.252;2023-03-23T01:08:14;93.18;;;15.10;;
46845;SDS011;33947;46.804;134.252;2023-03-23T01:11:18;82.72;;;17.13;;
46845;SDS011;33947;46.804;134.252;2023-03-23T01:14:20;114.13;;;14.50;;
46845;SDS011;33947;46.804;134.252;2023-03-23T01:17:31;122.22;;;17.20;;
46845;SDS011;33947;46.804;134.252;2023-03-23T01:20:34;110.60;;;14.40;;
46845;SDS011;33947;46.804;134.252;2023-03-23T01:23:38;132.85;;;14.05;;
46845;SDS011;33947;46.804;134.252;2023-03-23T01:26:41;114.88;;;13.05;;
46845;SDS011;33947;46.804;134.252;2023-03-23T01:29:44;109.65;;;14.85;;
46845;SDS011;33947;46.804;134.252;2023-03-23T01:32:47;130.02;;;14.82;;
46845;SDS011;33947;46.804;134.252;2023-03-23T01:35:49;139.63;;;17.20;;
46845;SDS011;33947;46.804;134.252;2023-03-23T01:38:53;118.80;;;14.45;;
46845;SDS011;33947;46.804;134.252;2023-03-23T01:41:55;110.07;;;14.25;;
46845;SDS011;33947;46.804;134.252;2023-03-23T01:45:20;87.57;;;12.60;;
46845;SDS011;33947;46.804;134.252;2023-03-23T01:48:29;117.93;;;16.33;;
46845;SDS011;33947;46.804;134.252;2023-03-23T01:51:40;114.25;;;14.82;;
46845;SDS011;33947;46.804;134.252;2023-03-23T01:54:48;112.03;;;13.20;;
46845;SDS011;33947;46.804;134.252;2023-03-23T01:57:54;121.82;;;13.57;;
46845;SDS011;33947;46.804;134.252;2023-03-23T02:01:00;121.25;;;15.90;;
46845;SDS011;33947;46.804;134.252;2023-03-23T02:04:06;122.63;;;11.98;;
46845;SDS011;33947;46.804;134.252;2023-03-23T02:07:12;168.73;;;13.93;;
46845;SDS011;33947;46.804;134.252;2023-03-23T02:10:17;152.38;;;18.45;;
46845;SDS011;33947;46.804;134.252;2023-03-23T02:13:20;165.85;;;21.67;;
46845;SDS011;33947;46.804;134.252;2023-03-23T02:23:40;168.85;;;20.88;;
46845;SDS011;33947;46.804;134.252;2023-03-23T02:33:54;175.80;;;19.77;;
46845;SDS011;33947;46.804;134.252;2023-03-23T02:37:02;168.55;;;17.45;;
46845;SDS011;33947;46.804;134.252;2023-03-23T02:40:20;156.98;;;17.60;;
46845;SDS011;33947;46.804;134.252;2023-03-23T02:43:30;146.00;;;11.15;;
46845;SDS011;33947;46.804;134.252;2023-03-23T02:46:39;120.65;;;13.02;;
46845;SDS011;33947;46.804;134.252;2023-03-23T02:49:43;107.22;;;12.55;;
46845;SDS011;33947;46.804;134.252;2023-03-23T02:52:48;117.53;;;10.85;;
46845;SDS011;33947;46.804;134.252;2023-03-23T02:55:53;108.88;;;9.35;;
46845;SDS011;33947;46.804;134.252;2023-03-23T02:59:02;134.68;;;15.15;;
46845;SDS011;33947;46.804;134.252;2023-03-23T03:12:04;119.82;;;12.90;;
46845;SDS011;33947;46.804;134.252;2023-03-23T03:15:21;90.13;;;10.77;;
46845;SDS011;33947;46.804;134.252;2023-03-23T03:18:42;127.00;;;12.27;;
46845;SDS011;33947;46.804;134.252;2023-03-23T03:21:59;136.32;;;11.50;;
46845;SDS011;33947;46.804;134.252;2023-03-23T03:25:12;118.85;;;13.23;;
46845;SDS011;33947;46.804;134.252;2023-03-23T03:28:19;95.25;;;11.98;;
46845;SDS011;33947;46.804;134.252;2023-03-23T03:31:32;154.57;;;17.02;;
46845;SDS011;33947;46.804;134.252;2023-03-23T03:34:40;98.65;;;12.00;;
46845;SDS011;33947;46.804;134.252;2023-03-23T03:37:43;156.32;;;14.27;;
46845;SDS011;33947;46.804;134.252;2023-03-23T03:40:47;104.80;;;12.25;;
46845;SDS011;33947;46.804;134.252;2023-03-23T03:43:51;103.88;;;9.60;;
46845;SDS011;33947;46.804;134.252;2023-03-23T03:46:54;101.78;;;10.32;;
46845;SDS011;33947;46.804;134.252;2023-03-23T03:49:57;130.85;;;13.93;;
46845;SDS011;33947;46.804;134.252;2023-03-23T03:53:04;106.00;;;11.93;;
46845;SDS011;33947;46.804;134.252;2023-03-23T03:56:08;98.55;;;11.25;;
46845;SDS011;33947;46.804;134.252;2023-03-23T03:59:17;132.50;;;14.82;;
46845;SDS011;33947;46.804;134.252;2023-03-23T04:02:38;96.63;;;9.32;;
46845;SDS011;33947;46.804;134.252;2023-03-23T04:05:42;73.72;;;9.52;;
46845;SDS011;33947;46.804;134.252;2023-03-23T04:08:49;117.45;;;11.40;;
46845;SDS011;33947;46.804;134.252;2023-03-23T04:11:52;95.38;;;12.02;;
46845;SDS011;33947;46.804;134.252;2023-03-23T04:15:14;119.55;;;14.65;;
46845;SDS011;33947;46.804;134.252;2023-03-23T04:18:18;116.47;;;10.80;;
46845;SDS011;33947;46.804;134.252;2023-03-23T04:21:23;95.00;;;12.20;;
46845;SDS011;33947;46.804;134.252;2023-03-23T04:24:30;104.15;;;10.30;;
46845;SDS011;33947;46.804;134.252;2023-03-23T04:27:35;139.18;;;13.20;;
46845;SDS011;33947;46.804;134.252;2023-03-23T04:30:41;112.07;;;12.63;;
46845;SDS011;33947;46.804;134.252;2023-03-23T04:33:47;98.78;;;10.00;;
46845;SDS011;33947;46.804;134.252;2023-03-23T04:36:50;83.03;;;9.25;;
46845;SDS011;33947;46.804;134.252;2023-03-23T04:40:00;69.90;;;8.35;;
46845;SDS011;33947;46.804;134.252;2023-03-23T04:43:16;80.32;;;7.97;;
46845;SDS011;33947;46.804;134.252;2023-03-23T04:46:29;89.68;;;7.85;;
46845;SDS011;33947;46.804;134.252;2023-03-23T04:49:36;58.80;;;8.73;;
46845;SDS011;33947;46.804;134.252;2023-03-23T04:52:54;87.68;;;8.48;;
46845;SDS011;33947;46.804;134.252;2023-03-23T04:55:59;118.43;;;9.82;;
46845;SDS011;33947;46.804;134.252;2023-03-23T04:59:09;75.45;;;8.20;;
46845;SDS011;33947;46.804;134.252;2023-03-23T05:02:32;76.70;;;7.85;;
46845;SDS011;33947;46.804;134.252;2023-03-23T05:05:35;62.08;;;9.25;;
46845;SDS011;33947;46.804;134.252;2023-03-23T05:08:42;107.32;;;11.18;;
46845;SDS011;33947;46.804;134.252;2023-03-23T05:11:45;66.82;;;8.82;;
46845;SDS011;33947;46.804;134.252;2023-03-23T05:14:48;92.68;;;9.35;;
46845;SDS011;33947;46.804;134.252;2023-03-23T05:17:54;73.00;;;8.73;;
46845;SDS011;33947;46.804;134.252;2023-03-23T05:20:59;81.50;;;7.35;;
46845;SDS011;33947;46.804;134.252;2023-03-23T05:24:06;83.75;;;8.82;;
46845;SDS011;33947;46.804;134.252;2023-03-23T05:27:09;65.18;;;6.32;;
46845;SDS011;33947;46.804;134.252;2023-03-23T05:30:17;96.95;;;7.82;;
46845;SDS011;33947;46.804;134.252;2023-03-23T05:33:22;77.03;;;9.23;;
46845;SDS011;33947;46.804;134.252;2023-03-23T05:36:34;76.57;;;7.63;;
46845;SDS011;33947;46.804;134.252;2023-03-23T05:39:46;77.78;;;7.15;;
46845;SDS011;33947;46.804;134.252;2023-03-23T05:43:09;81.78;;;7.80;;
46845;SDS011;33947;46.804;134.252;2023-03-23T05:46:31;90.15;;;8.65;;
46845;SDS011;33947;46.804;134.252;2023-03-23T05:49:36;73.47;;;10.60;;
46845;SDS011;33947;46.804;134.252;2023-03-23T05:52:42;92.13;;;8.65;;
46845;SDS011;33947;46.804;134.252;2023-03-23T05:55:48;93.72;;;9.48;;
46845;SDS011;33947;46.804;134.252;2023-03-23T05:58:58;76.88;;;9.65;;
46845;SDS011;33947;46.804;134.252;2023-03-23T06:02:04;89.25;;;9.38;;
46845;SDS011;33947;46.804;134.252;2023-03-23T06:05:07;81.78;;;7.50;;
46845;SDS011;33947;46.804;134.252;2023-03-23T06:08:14;68.40;;;6.90;;
46845;SDS011;33947;46.804;134.252;2023-03-23T06:11:17;87.43;;;8.27;;
46845;SDS011;33947;46.804;134.252;2023-03-23T06:14:39;81.15;;;8.10;;
46845;SDS011;33947;46.804;134.252;2023-03-23T06:17:42;67.07;;;8.43;;
46845;SDS011;33947;46.804;134.252;2023-03-23T06:20:45;78.20;;;8.73;;
46845;SDS011;33947;46.804;134.252;2023-03-23T06:24:20;60.45;;;9.43;;
46845;SDS011;33947;46.804;134.252;2023-03-23T06:27:24;91.75;;;22.35;;
46845;SDS011;33947;46.804;134.252;2023-03-23T06:30:29;53.88;;;10.80;;
46845;SDS011;33947;46.804;134.252;2023-03-23T06:33:33;67.78;;;7.00;;
46845;SDS011;33947;46.804;134.252;2023-03-23T06:37:03;66.70;;;8.65;;
46845;SDS011;33947;46.804;134.252;2023-03-23T06:40:16;52.28;;;12.00;;
46845;SDS011;33947;46.804;134.252;2023-03-23T06:43:29;65.63;;;5.97;;
46845;SDS011;33947;46.804;134.252;2023-03-23T06:46:46;81.50;;;10.40;;
46845;SDS011;33947;46.804;134.252;2023-03-23T06:49:57;91.75;;;9.48;;
46845;SDS011;33947;46.804;134.252;2023-03-23T06:53:03;63.53;;;6.45;;
46845;SDS011;33947;46.804;134.252;2023-03-23T06:56:08;73.77;;;8.03;;
46845;SDS011;33947;46.804;134.252;2023-03-23T06:59:11;95.85;;;11.45;;
46845;SDS011;33947;46.804;134.252;2023-03-23T07:02:15;74.82;;;7.03;;
46845;SDS011;33947;46.804;134.252;2023-03-23T07:05:38;56.78;;;7.15;;
46845;SDS011;33947;46.804;134.252;2023-03-23T07:08:44;72.10;;;24.58;;
46845;SDS011;33947;46.804;134.252;2023-03-23T07:11:52;62.60;;;8.48;;
46845;SDS011;33947;46.804;134.252;2023-03-23T07:15:06;56.67;;;6.47;;
46845;SDS011;33947;46.804;134.252;2023-03-23T07:18:15;70.78;;;9.80;;
46845;SDS011;33947;46.804;134.252;2023-03-23T07:21:21;77.65;;;9.80;;
46845;SDS011;33947;46.804;134.252;2023-03-23T07:24:24;58.83;;;6.45;;
46845;SDS011;33947;46.804;134.252;2023-03-23T07:27:39;67.60;;;8.20;;
46845;SDS011;33947;46.804;134.252;2023-03-23T07:30:42;58.03;;;7.32;;
46845;SDS011;33947;46.804;134.252;2023-03-23T07:33:48;42.67;;;6.05;;
46845;SDS011;33947;46.804;134.252;2023-03-23T07:36:51;33.63;;;6.30;;
46845;SDS011;33947;46.804;134.252;2023-03-23T07:39:55;53.40;;;8.63;;
46845;SDS011;33947;46.804;134.252;2023-03-23T07:42:58;58.22;;;10.57;;
46845;SDS011;33947;46.804;134.252;2023-03-23T07:49:40;51.80;;;7.68;;
46845;SDS011;33947;46.804;134.252;2023-03-23T07:52:55;56.55;;;15.70;;
46845;SDS011;33947;46.804;134.252;2023-03-23T07:56:01;133.38;;;67.85;;
46845;SDS011;33947;46.804;134.252;2023-03-23T07:59:30;28.73;;;5.47;;
46845;SDS011;33947;46.804;134.252;2023-03-23T08:02:34;20.85;;;6.15;;
46845;SDS011;33947;46.804;134.252;2023-03-23T08:06:03;50.50;;;4.97;;
46845;SDS011;33947;46.804;134.252;2023-03-23T08:09:30;25.70;;;6.22;;
46845;SDS011;33947;46.804;134.252;2023-03-23T08:12:55;58.85;;;35.17;;
46845;SDS011;33947;46.804;134.252;2023-03-23T08:16:22;36.95;;;6.10;;
46845;SDS011;33947;46.804;134.252;2023-03-23T08:19:40;20.70;;;4.22;;
46845;SDS011;33947;46.804;134.252;2023-03-23T08:23:05;34.67;;;5.22;;
46845;SDS011;33947;46.804;134.252;2023-03-23T08:26:30;32.88;;;4.43;;
46845;SDS011;33947;46.804;134.252;2023-03-23T08:30:06;38.50;;;5.20;;
46845;SDS011;33947;46.804;134.252;2023-03-23T08:33:33;21.65;;;3.88;;
46845;SDS011;33947;46.804;134.252;2023-03-23T08:36:56;20.63;;;3.97;;
46845;SDS011;33947;46.804;134.252;2023-03-23T08:40:06;36.28;;;5.13;;
46845;SDS011;33947;46.804;134.252;2023-03-23T08:43:31;28.65;;;6.57;;
46845;SDS011;33947;46.804;134.252;2023-03-23T08:47:13;18.90;;;4.10;;
46845;SDS011;33947;46.804;134.252;2023-03-23T08:50:48;23.00;;;3.65;;
46845;SDS011;33947;46.804;134.252;2023-03-23T08:54:12;23.92;;;6.20;;
46845;SDS011;33947;46.804;134.252;2023-03-23T08:57:35;14.70;;;5.13;;
46845;SDS011;33947;46.804;134.252;2023-03-23T09:00:51;17.05;;;3.22;;
46845;SDS011;33947;46.804;134.252;2023-03-23T09:04:13;13.95;;;3.40;;
46845;SDS011;33947;46.804;134.252;2023-03-23T09:07:32;17.90;;;4.53;;
46845;SDS011;33947;46.804;134.252;2023-03-23T09:10:34;20.15;;;3.92;;
46845;SDS011;33947;46.804;134.252;2023-03-23T09:13:37;20.75;;;3.30;;
46845;SDS011;33947;46.804;134.252;2023-03-23T09:17:01;24.55;;;4.70;;
46845;SDS011;33947;46.804;134.252;2023-03-23T09:20:05;14.45;;;3.47;;
46845;SDS011;33947;46.804;134.252;2023-03-23T09:23:18;11.27;;;4.22;;
46845;SDS011;33947;46.804;134.252;2023-03-23T09:26:22;9.70;;;4.30;;
46845;SDS011;33947;46.804;134.252;2023-03-23T09:29:26;24.20;;;4.40;;
46845;SDS011;33947;46.804;134.252;2023-03-23T09:32:29;11.00;;;4.00;;
46845;SDS011;33947;46.804;134.252;2023-03-23T09:35:32;18.77;;;3.33;;
46845;SDS011;33947;46.804;134.252;2023-03-23T09:38:37;28.30;;;6.95;;
46845;SDS011;33947;46.804;134.252;2023-03-23T09:42:30;29.02;;;8.30;;
46845;SDS011;33947;46.804;134.252;2023-03-23T09:45:19;61.17;;;18.40;;
46845;SDS011;33947;46.804;134.252;2023-03-23T09:48:48;43.90;;;12.43;;
46845;SDS011;33947;46.804;134.252;2023-03-23T09:55:18;28.42;;;11.07;;
46845;SDS011;33947;46.804;134.252;2023-03-23T09:58:26;19.53;;;5.90;;
46845;SDS011;33947;46.804;134.252;2023-03-23T10:01:50;39.70;;;9.15;;
46845;SDS011;33947;46.804;134.252;2023-03-23T10:04:57;31.17;;;11.23;;
46845;SDS011;33947;46.804;134.252;2023-03-23T10:08:20;39.35;;;11.80;;
46845;SDS011;33947;46.804;134.252;2023-03-23T10:11:31;53.35;;;13.73;;
46845;SDS011;33947;46.804;134.252;2023-03-23T10:15:19;24.00;;;8.27;;
46845;SDS011;33947;46.804;134.252;2023-03-23T10:21:32;22.75;;;7.20;;
46845;SDS011;33947;46.804;134.252;2023-03-23T10:24:43;21.85;;;6.25;;
46845;SDS011;33947;46.804;134.252;2023-03-23T10:31:05;22.40;;;6.13;;
46845;SDS011;33947;46.804;134.252;2023-03-23T10:34:31;31.35;;;13.00;;
46845;SDS011;33947;46.804;134.252;2023-03-23T10:37:39;12.45;;;5.45;;
46845;SDS011;33947;46.804;134.252;2023-03-23T10:40:52;12.88;;;5.97;;
46845;SDS011;33947;46.804;134.252;2023-03-23T10:43:59;20.23;;;7.47;;
46845;SDS011;33947;46.804;134.252;2023-03-23T10:47:07;18.08;;;7.38;;
46845;SDS011;33947;46.804;134.252;2023-03-23T10:50:13;15.50;;;7.88;;
46845;SDS011;33947;46.804;134.252;2023-03-23T10:53:21;24.88;;;11.77;;
46845;SDS011;33947;46.804;134.252;2023-03-23T10:59:41;27.08;;;12.40;;
46845;SDS011;33947;46.804;134.252;2023-03-23T11:02:44;34.05;;;15.25;;
46845;SDS011;33947;46.804;134.252;2023-03-23T11:05:54;20.85;;;8.73;;
46845;SDS011;33947;46.804;134.252;2023-03-23T11:09:08;9.05;;;4.90;;
46845;SDS011;33947;46.804;134.252;2023-03-23T11:12:16;19.30;;;12.05;;
46845;SDS011;33947;46.804;134.252;2023-03-23T11:15:42;9.52;;;5.85;;
46845;SDS011;33947;46.804;134.252;2023-03-23T11:18:46;12.27;;;4.13;;
46845;SDS011;33947;46.804;134.252;2023-03-23T11:21:53;9.57;;;3.90;;
46845;SDS011;33947;46.804;134.252;2023-03-23T11:25:04;9.85;;;3.58;;
46845;SDS011;33947;46.804;134.252;2023-03-23T11:28:07;6.32;;;2.97;;
46845;SDS011;33947;46.804;134.252;2023-03-23T11:31:11;9.80;;;3.05;;
46845;SDS011;33947;46.804;134.252;2023-03-23T11:40:33;5.85;;;3.05;;
46845;SDS011;33947;46.804;134.252;2023-03-23T11:43:51;8.18;;;3.60;;
46845;SDS011;33947;46.804;134.252;2023-03-23T11:50:45;11.77;;;7.93;;
46845;SDS011;33947;46.804;134.252;2023-03-23T11:57:22;8.95;;;3.60;;
46845;SDS011;33947;46.804;134.252;2023-03-23T12:00:27;8.43;;;3.07;;
46845;SDS011;33947;46.804;134.252;2023-03-23T12:10:24;29.60;;;4.82;;
46845;SDS011;33947;46.804;134.252;2023-03-23T12:21:15;9.52;;;3.15;;
46845;SDS011;33947;46.804;134.252;2023-03-23T12:31:44;6.53;;;3.42;;
46845;SDS011;33947;46.804;134.252;2023-03-23T12:48:47;9.50;;;2.58;;
46845;SDS011;33947;46.804;134.252;2023-03-23T12:51:59;6.65;;;2.60;;
46845;SDS011;33947;46.804;134.252;2023-03-23T12:55:23;5.82;;;2.40;;
46845;SDS011;33947;46.804;134.252;2023-03-23T12:58:30;7.13;;;2.60;;
46845;SDS011;33947;46.804;134.252;2023-03-23T13:01:38;5.00;;;2.72;;
46845;SDS011;33947;46.804;134.252;2023-03-23T13:04:51;5.55;;;2.50;;
46845;SDS011;33947;46.804;134.252;2023-03-23T13:11:20;6.63;;;3.08;;
46845;SDS011;33947;46.804;134.252;2023-03-23T13:21:28;6.57;;;2.70;;
46845;SDS011;33947;46.804;134.252;2023-03-23T13:24:33;6.93;;;3.38;;
46845;SDS011;33947;46.804;134.252;2023-03-23T13:27:42;9.10;;;3.20;;
46845;SDS011;33947;46.804;134.252;2023-03-23T13:30:52;12.23;;;3.53;;
46845;SDS011;33947;46.804;134.252;2023-03-23T13:37:11;8.30;;;2.42;;
46845;SDS011;33947;46.804;134.252;2023-03-23T13:40:30;15.13;;;6.00;;
46845;SDS011;33947;46.804;134.252;2023-03-23T13:43:34;6.95;;;3.40;;
46845;SDS011;33947;46.804;134.252;2023-03-23T13:46:38;7.38;;;3.42;;
46845;SDS011;33947;46.804;134.252;2023-03-23T13:53:20;10.07;;;3.00;;
46845;SDS011;33947;46.804;134.252;2023-03-23T13:56:39;12.00;;;3.15;;
46845;SDS011;33947;46.804;134.252;2023-03-23T13:59:57;14.95;;;3.38;;
46845;SDS011;33947;46.804;134.252;2023-03-23T14:03:32;22.67;;;6.13;;
46845;SDS011;33947;46.804;134.252;2023-03-23T14:06:36;10.63;;;3.33;;
46845;SDS011;33947;46.804;134.252;2023-03-23T14:09:45;13.00;;;4.93;;
46845;SDS011;33947;46.804;134.252;2023-03-23T14:12:50;7.68;;;3.10;;
46845;SDS011;33947;46.804;134.252;2023-03-23T14:19:04;7.57;;;2.97;;
46845;SDS011;33947;46.804;134.252;2023-03-23T14:22:28;16.67;;;4.28;;
46845;SDS011;33947;46.804;134.252;2023-03-23T14:25:35;10.00;;;4.07;;
46845;SDS011;33947;46.804;134.252;2023-03-23T14:28:39;9.45;;;3.97;;
46845;SDS011;33947;46.804;134.252;2023-03-23T14:31:44;23.65;;;7.80;;
46845;SDS011;33947;46.804;134.252;2023-03-23T14:34:49;98.20;;;26.23;;
46845;SDS011;33947;46.804;134.252;2023-03-23T14:37:53;129.45;;;33.33;;
46845;SDS011;33947;46.804;134.252;2023-03-23T14:41:03;175.95;;;43.42;;
46845;SDS011;33947;46.804;134.252;2023-03-23T14:44:08;126.30;;;32.72;;
46845;SDS011;33947;46.804;134.252;2023-03-23T14:47:29;157.40;;;39.63;;
46845;SDS011;33947;46.804;134.252;2023-03-23T14:50:38;237.65;;;58.90;;
46845;SDS011;33947;46.804;134.252;2023-03-23T14:53:43;115.68;;;27.48;;
46845;SDS011;33947;46.804;134.252;2023-03-23T14:56:46;72.05;;;21.83;;
46845;SDS011;33947;46.804;134.252;2023-03-23T14:59:49;37.72;;;12.00;;
46845;SDS011;33947;46.804;134.252;2023-03-23T15:02:55;39.33;;;10.88;;
46845;SDS011;33947;46.804;134.252;2023-03-23T15:06:00;33.05;;;10.23;;
46845;SDS011;33947;46.804;134.252;2023-03-23T15:09:09;82.45;;;27.38;;
46845;SDS011;33947;46.804;134.252;2023-03-23T15:12:24;83.20;;;23.10;;
46845;SDS011;33947;46.804;134.252;2023-03-23T15:15:31;60.92;;;19.05;;
46845;SDS011;33947;46.804;134.252;2023-03-23T15:21:53;42.63;;;14.07;;
46845;SDS011;33947;46.804;134.252;2023-03-23T15:25:02;590.45;;;192.80;;
46845;SDS011;33947;46.804;134.252;2023-03-23T15:28:17;110.13;;;36.03;;
46845;SDS011;33947;46.804;134.252;2023-03-23T15:31:24;102.00;;;30.98;;
46845;SDS011;33947;46.804;134.252;2023-03-23T15:34:31;47.35;;;17.10;;
46845;SDS011;33947;46.804;134.252;2023-03-23T15:37:44;30.90;;;12.95;;
46845;SDS011;33947;46.804;134.252;2023-03-23T15:40:50;29.05;;;10.52;;
46845;SDS011;33947;46.804;134.252;2023-03-23T15:43:55;37.17;;;12.47;;
46845;SDS011;33947;46.804;134.252;2023-03-23T15:47:15;59.53;;;16.95;;
46845;SDS011;33947;46.804;134.252;2023-03-23T15:53:35;175.60;;;42.40;;
46845;SDS011;33947;46.804;134.252;2023-03-23T15:56:42;30.98;;;9.85;;
46845;SDS011;33947;46.804;134.252;2023-03-23T15:59:46;21.38;;;7.95;;
46845;SDS011;33947;46.804;134.252;2023-03-23T16:03:00;43.13;;;14.68;;
46845;SDS011;33947;46.804;134.252;2023-03-23T16:06:10;27.88;;;13.05;;
46845;SDS011;33947;46.804;134.252;2023-03-23T16:09:26;11.50;;;5.72;;
46845;SDS011;33947;46.804;134.252;2023-03-23T16:12:30;23.83;;;6.85;;
46845;SDS011;33947;46.804;134.252;2023-03-23T16:15:35;33.20;;;10.20;;
46845;SDS011;33947;46.804;134.252;2023-03-23T16:18:39;19.25;;;8.80;;
46845;SDS011;33947;46.804;134.252;2023-03-23T16:21:44;23.17;;;8.18;;
46845;SDS011;33947;46.804;134.252;2023-03-23T16:24:48;23.15;;;8.98;;
46845;SDS011;33947;46.804;134.252;2023-03-23T16:27:52;18.63;;;7.70;;
46845;SDS011;33947;46.804;134.252;2023-03-23T16:30:56;20.38;;;7.28;;
46845;SDS011;33947;46.804;134.252;2023-03-23T16:34:00;25.23;;;6.15;;
46845;SDS011;33947;46.804;134.252;2023-03-23T16:37:04;25.15;;;6.60;;
46845;SDS011;33947;46.804;134.252;2023-03-23T16:40:09;22.48;;;7.35;;
46845;SDS011;33947;46.804;134.252;2023-03-23T16:43:15;19.48;;;7.05;;
46845;SDS011;33947;46.804;134.252;2023-03-23T16:46:20;23.05;;;6.72;;
46845;SDS011;33947;46.804;134.252;2023-03-23T16:49:24;29.80;;;12.68;;
46845;SDS011;33947;46.804;134.252;2023-03-23T16:52:28;23.15;;;9.43;;
46845;SDS011;33947;46.804;134.252;2023-03-23T16:55:33;17.55;;;7.90;;
46845;SDS011;33947;46.804;134.252;2023-03-23T16:58:39;8.35;;;4.88;;
46845;SDS011;33947;46.804;134.252;2023-03-23T17:01:44;13.90;;;3.88;;
46845;SDS011;33947;46.804;134.252;2023-03-23T17:04:49;6.13;;;3.70;;
46845;SDS011;33947;46.804;134.252;2023-03-23T17:07:53;10.10;;;4.45;;
46845;SDS011;33947;46.804;134.252;2023-03-23T17:10:58;18.80;;;4.47;;
46845;SDS011;33947;46.804;134.252;2023-03-23T17:14:03;13.25;;;4.50;;
46845;SDS011;33947;46.804;134.252;2023-03-23T17:17:08;15.25;;;5.00;;
46845;SDS011;33947;46.804;134.252;2023-03-23T17:20:12;13.02;;;5.05;;
46845;SDS011;33947;46.804;134.252;2023-03-23T17:23:17;17.38;;;5.50;;
46845;SDS011;33947;46.804;134.252;2023-03-23T17:26:21;16.35;;;4.95;;
46845;SDS011;33947;46.804;134.252;2023-03-23T17:29:26;15.23;;;6.05;;
46845;SDS011;33947;46.804;134.252;2023-03-23T17:32:30;36.67;;;10.85;;
46845;SDS011;33947;46.804;134.252;2023-03-23T17:35:40;25.38;;;7.05;;
46845;SDS011;33947;46.804;134.252;2023-03-23T17:38:45;25.25;;;8.20;;
46845;SDS011;33947;46.804;134.252;2023-03-23T17:41:50;18.60;;;8.57;;
46845;SDS011;33947;46.804;134.252;2023-03-23T17:44:54;23.80;;;8.13;;
46845;SDS011;33947;46.804;134.252;2023-03-23T17:47:59;14.35;;;4.72;;
46845;SDS011;33947;46.804;134.252;2023-03-23T17:51:04;16.67;;;5.57;;
46845;SDS011;33947;46.804;134.252;2023-03-23T17:54:09;19.42;;;6.15;;
46845;SDS011;33947;46.804;134.252;2023-03-23T17:57:13;12.60;;;4.60;;
46845;SDS011;33947;46.804;134.252;2023-03-23T18:00:18;11.45;;;3.35;;
46845;SDS011;33947;46.804;134.252;2023-03-23T18:03:23;14.15;;;3.45;;
46845;SDS011;33947;46.804;134.252;2023-03-23T18:06:29;13.52;;;3.17;;
46845;SDS011;33947;46.804;134.252;2023-03-23T18:09:34;13.90;;;2.83;;
46845;SDS011;33947;46.804;134.252;2023-03-23T18:12:39;7.10;;;2.80;;
46845;SDS011;33947;46.804;134.252;2023-03-23T18:15:44;10.60;;;3.07;;
46845;SDS011;33947;46.804;134.252;2023-03-23T18:18:49;7.80;;;4.75;;
46845;SDS011;33947;46.804;134.252;2023-03-23T18:21:54;7.22;;;3.28;;
46845;SDS011;33947;46.804;134.252;2023-03-23T18:24:59;10.67;;;3.00;;
46845;SDS011;33947;46.804;134.252;2023-03-23T18:31:20;18.25;;;9.18;;
46845;SDS011;33947;46.804;134.252;2023-03-23T18:34:25;25.05;;;9.48;;
46845;SDS011;33947;46.804;134.252;2023-03-23T18:37:30;8.38;;;3.65;;
46845;SDS011;33947;46.804;134.252;2023-03-23T18:40:35;21.90;;;6.90;;
46845;SDS011;33947;46.804;134.252;2023-03-23T18:43:44;16.80;;;4.97;;
46845;SDS011;33947;46.804;134.252;2023-03-23T18:46:49;10.60;;;4.70;;
46845;SDS011;33947;46.804;134.252;2023-03-23T18:49:54;11.43;;;3.67;;
46845;SDS011;33947;46.804;134.252;2023-03-23T18:52:58;9.93;;;3.92;;
46845;SDS011;33947;46.804;134.252;2023-03-23T18:56:10;5.53;;;3.53;;
46845;SDS011;33947;46.804;134.252;2023-03-23T18:59:17;41.17;;;19.77;;
46845;SDS011;33947;46.804;134.252;2023-03-23T19:02:22;19.73;;;8.10;;
46845;SDS011;33947;46.804;134.252;2023-03-23T19:05:26;13.10;;;6.15;;
46845;SDS011;33947;46.804;134.252;2023-03-23T19:08:31;9.65;;;3.72;;
46845;SDS011;33947;46.804;134.252;2023-03-23T19:11:37;10.55;;;4.72;;
46845;SDS011;33947;46.804;134.252;2023-03-23T19:14:41;13.98;;;3.50;;
46845;SDS011;33947;46.804;134.252;2023-03-23T19:17:46;12.63;;;3.90;;
46845;SDS011;33947;46.804;134.252;2023-03-23T19:20:50;10.10;;;3.40;;
46845;SDS011;33947;46.804;134.252;2023-03-23T19:24:16;13.75;;;3.03;;
46845;SDS011;33947;46.804;134.252;2023-03-23T19:27:20;12.75;;;3.38;;
46845;SDS011;33947;46.804;134.252;2023-03-23T19:30:24;13.85;;;3.20;;
46845;SDS011;33947;46.804;134.252;2023-03-23T19:33:29;17.55;;;4.60;;
46845;SDS011;33947;46.804;134.252;2023-03-23T19:36:34;9.52;;;4.00;;
46845;SDS011;33947;46.804;134.252;2023-03-23T19:39:38;12.10;;;4.63;;
46845;SDS011;33947;46.804;134.252;2023-03-23T19:42:44;14.57;;;5.88;;
46845;SDS011;33947;46.804;134.252;2023-03-23T19:45:49;7.38;;;4.32;;
46845;SDS011;33947;46.804;134.252;2023-03-23T19:48:53;12.68;;;4.78;;
46845;SDS011;33947;46.804;134.252;2023-03-23T19:51:58;10.57;;;6.18;;
46845;SDS011;33947;46.804;134.252;2023-03-23T19:55:13;8.27;;;3.72;;
46845;SDS011;33947;46.804;134.252;2023-03-23T19:58:18;11.23;;;3.22;;
46845;SDS011;33947;46.804;134.252;2023-03-23T20:01:23;11.17;;;3.97;;